Time;durP1;ratioP1;P1;durP2;ratioP2;P2;SDS_P1;SDS_P2;PMS_P1;PMS_P2;Temp;Humidity;BMP_temperature;BMP_pressure;BME280_temperature;BME280_humidity;BME280_pressure;Samples;Min_cycle;Max_cycle;Signal;HPM_P1;HPM_P2
2023/01/19 00:02:42;;;;;;;;;;;;;;;18.15;66.10;99566.44;2394077;72;22305;-76
2023/01/19 00:05:43;;;;;;;;;;;;;;;18.16;65.99;99567.25;2342779;75;52430;-76
2023/01/19 00:08:47;;;;;;;;;;;;;;;18.14;65.96;99575.51;2342569;74;52172;-76
2023/01/19 00:11:48;;;;;;;;;;;;;;;18.14;66.01;99578.70;2340699;74;22695;-76
2023/01/19 00:14:50;;;;;;;;;;;;;;;18.12;66.12;99582.09;2340280;74;50447;-75
2023/01/19 00:17:51;;;;;;;;;;;;;;;18.09;66.33;99591.88;2329438;74;51186;-76
2023/01/19 00:20:53;;;;;;;;;;;;;;;18.06;66.38;99597.95;2356048;74;50651;-76
2023/01/19 00:23:55;;;;;;;;;;;;;;;18.02;66.52;99594.55;2357141;74;50759;-76
2023/01/19 00:26:56;;;;;;;;;;;;;;;17.92;67.26;99598.14;2358248;73;50209;-76
2023/01/19 00:29:58;;;;;;;;;;;;;;;17.91;67.23;99600.52;2328658;74;49816;-76
2023/01/19 00:32:59;;;;;;;;;;;;;;;17.93;67.08;99610.48;2357963;73;50808;-76
2023/01/19 00:36:01;;;;;;;;;;;;;;;18.03;66.90;99610.41;2379024;75;51465;-75
2023/01/19 00:39:03;;;;;;;;;;;;;;;18.12;66.42;99610.20;2379036;75;51547;-76
2023/01/19 00:45:23;;;;;;;;;;;;;;;18.13;66.25;99615.34;2321980;75;22320;-76
2023/01/19 00:48:25;;;;;;;;;;;;;;;18.11;66.36;99612.55;2340573;76;51407;-76
2023/01/19 00:51:27;;;;;;;;;;;;;;;18.10;66.45;99614.94;2353781;73;51433;-76
2023/01/19 00:54:28;;;;;;;;;;;;;;;18.06;66.68;99620.70;2331331;74;51189;-76
2023/01/19 00:57:30;;;;;;;;;;;;;;;18.04;66.75;99624.61;2358048;73;51467;-76
2023/01/19 01:00:31;;;;;;;;;;;;;;;17.99;66.88;99623.88;2379549;73;50230;-75
2023/01/19 01:03:33;;;;;;;;;;;;;;;17.90;67.28;99633.13;2339952;74;52556;-76
2023/01/19 01:06:34;;;;;;;;;;;;;;;17.85;67.67;99630.23;2328387;75;51603;-75
2023/01/19 01:09:36;;;;;;;;;;;;;;;17.89;67.50;99629.33;2347464;74;50648;-75
2023/01/19 01:12:38;;;;;;;;;;;;;;;17.95;67.21;99632.00;2333619;73;52469;-75
2023/01/19 01:15:39;;;;;;;;;;;;;;;18.04;66.95;99633.98;2356128;74;50138;-75
2023/01/19 01:18:41;;;;;;;;;;;;;;;18.11;66.73;99630.80;2327525;74;51258;-75
2023/01/19 01:21:43;;;;;;;;;;;;;;;18.17;66.50;99633.17;2341891;74;50706;-76
2023/01/19 01:24:44;;;;;;;;;;;;;;;18.15;66.40;99625.86;2377947;74;50370;-76
2023/01/19 01:27:46;;;;;;;;;;;;;;;18.14;66.42;99624.22;2380996;74;50493;-76
2023/01/19 01:30:47;;;;;;;;;;;;;;;18.13;66.58;99627.91;2382926;73;50555;-76
2023/01/19 01:33:49;;;;;;;;;;;;;;;18.11;66.65;99631.30;2349734;75;50634;-76
2023/01/19 01:36:50;;;;;;;;;;;;;;;18.08;66.70;99631.70;2340365;75;51446;-75
2023/01/19 01:39:52;;;;;;;;;;;;;;;18.02;66.75;99627.48;2329984;74;51487;-76
2023/01/19 01:42:54;;;;;;;;;;;;;;;18.00;67.04;99632.20;2328702;73;51640;-75
2023/01/19 01:45:55;;;;;;;;;;;;;;;17.92;67.64;99631.07;2368851;74;51436;-76
2023/01/19 01:49:04;;;;;;;;;;;;;;;17.88;67.59;99637.03;2380984;73;51434;-76
2023/01/19 01:52:05;;;;;;;;;;;;;;;17.92;67.42;99641.77;2371246;74;51489;-75
2023/01/19 01:55:07;;;;;;;;;;;;;;;18.02;67.11;99644.06;2340281;75;50318;-75
2023/01/19 01:58:09;;;;;;;;;;;;;;;18.10;66.74;99644.38;2340364;75;51493;-77
2023/01/19 02:04:30;;;;;;;;;;;;;;;18.12;66.46;99637.80;2322854;74;22358;-75
2023/01/19 02:14:13;;;;;;;;;;;;;;;18.03;66.73;99641.20;2380419;73;22266;-76
2023/01/19 02:17:15;;;;;;;;;;;;;;;18.01;66.86;99637.89;2358429;74;50700;-76
2023/01/19 02:20:16;;;;;;;;;;;;;;;17.97;67.08;99635.30;2358408;74;51296;-76
2023/01/19 02:23:20;;;;;;;;;;;;;;;17.84;67.69;99633.94;2379583;73;50675;-75
2023/01/19 02:26:22;;;;;;;;;;;;;;;17.82;67.69;99632.80;2340685;75;50726;-76
2023/01/19 02:29:24;;;;;;;;;;;;;;;17.85;67.44;99635.58;2343679;74;50347;-75
2023/01/19 02:32:25;;;;;;;;;;;;;;;17.94;67.26;99642.41;2355093;74;52462;-76
2023/01/19 02:35:27;;;;;;;;;;;;;;;18.01;66.91;99641.91;2360285;74;51485;-76
2023/01/19 02:38:28;;;;;;;;;;;;;;;18.09;66.64;99640.89;2345635;74;51381;-76
2023/01/19 02:41:30;;;;;;;;;;;;;;;18.14;66.36;99642.44;2381244;73;50249;-75
2023/01/19 02:44:32;;;;;;;;;;;;;;;18.15;66.28;99640.58;2336643;74;51772;-76
2023/01/19 02:47:38;;;;;;;;;;;;;;;18.15;66.44;99636.56;2381284;73;51429;-75
2023/01/19 02:50:49;;;;;;;;;;;;;;;18.12;66.46;99636.45;2381444;74;50719;-76
2023/01/19 02:53:54;;;;;;;;;;;;;;;18.09;66.67;99634.72;2381287;74;22777;-76
2023/01/19 02:57:14;;;;;;;;;;;;;;;18.05;66.68;99635.09;2356155;74;49889;-75
2023/01/19 03:00:17;;;;;;;;;;;;;;;18.02;66.64;99632.02;2378421;73;51524;-76
2023/01/19 03:03:20;;;;;;;;;;;;;;;17.97;66.98;99631.28;2394195;73;50824;-76
2023/01/19 03:06:24;;;;;;;;;;;;;;;17.90;67.41;99624.27;2356307;74;50682;-76
2023/01/19 03:09:30;;;;;;;;;;;;;;;17.87;67.32;99625.50;2353853;74;51756;-76
2023/01/19 03:12:40;;;;;;;;;;;;;;;17.92;67.06;99632.41;2381124;74;51642;-76
2023/01/19 03:15:46;;;;;;;;;;;;;;;18.01;66.85;99631.20;2369016;73;50249;-76
2023/01/19 03:18:50;;;;;;;;;;;;;;;18.09;66.48;99634.72;2342981;74;50327;-76
2023/01/19 03:21:53;;;;;;;;;;;;;;;18.12;66.32;99640.47;2318359;76;52446;-76
2023/01/19 03:24:56;;;;;;;;;;;;;;;18.11;66.30;99632.63;2364138;74;51528;-76
2023/01/19 03:27:57;;;;;;;;;;;;;;;18.10;66.39;99628.32;2343379;74;51562;-76
2023/01/19 03:31:01;;;;;;;;;;;;;;;18.08;66.41;99634.39;2347625;72;51316;-76
2023/01/19 03:34:05;;;;;;;;;;;;;;;18.04;66.53;99638.00;2351814;74;51255;-76
2023/01/19 03:37:07;;;;;;;;;;;;;;;18.00;66.55;99632.20;2340458;75;51543;-76
2023/01/19 03:40:09;;;;;;;;;;;;;;;17.99;66.58;99641.28;2371398;73;50765;-76
2023/01/19 03:43:11;;;;;;;;;;;;;;;17.89;67.24;99640.03;2380789;74;50281;-76
2023/01/19 03:46:16;;;;;;;;;;;;;;;17.83;67.33;99637.66;2357939;74;51157;-76
2023/01/19 03:49:16;;;;;;;;;;;;;;;17.84;67.16;99644.13;2378149;73;22445;-76
2023/01/19 03:52:17;;;;;;;;;;;;;;;17.89;66.97;99643.52;2380833;74;51438;-76
2023/01/19 03:55:19;;;;;;;;;;;;;;;17.97;66.80;99651.88;2351745;74;52277;-76
2023/01/19 03:58:21;;;;;;;;;;;;;;;18.03;66.55;99657.26;2318077;75;52412;-76
2023/01/19 04:01:23;;;;;;;;;;;;;;;18.10;66.26;99657.77;2358224;73;50675;-76
2023/01/19 04:04:25;;;;;;;;;;;;;;;18.13;66.02;99654.16;2378729;74;50362;-76
2023/01/19 04:07:27;;;;;;;;;;;;;;;18.12;66.00;99658.39;2379025;75;49972;-76
2023/01/19 04:10:28;;;;;;;;;;;;;;;18.11;66.01;99654.05;2318471;74;52610;-76
2023/01/19 04:13:30;;;;;;;;;;;;;;;18.09;66.15;99652.12;2340159;76;50363;-76
2023/01/19 04:16:32;;;;;;;;;;;;;;;18.04;66.27;99651.38;2340461;75;50225;-76
2023/01/19 04:19:33;;;;;;;;;;;;;;;18.01;66.34;99656.63;2360582;74;50312;-76
2023/01/19 04:22:35;;;;;;;;;;;;;;;17.97;66.38;99659.39;2331405;74;52582;-76
2023/01/19 04:25:37;;;;;;;;;;;;;;;17.92;66.71;99657.83;2358085;74;51558;-76
2023/01/19 04:28:38;;;;;;;;;;;;;;;17.83;67.09;99653.19;2337875;75;51381;-77
2023/01/19 04:31:40;;;;;;;;;;;;;;;17.84;66.96;99659.36;2345071;74;51613;-77
2023/01/19 04:34:42;;;;;;;;;;;;;;;17.92;66.72;99662.37;2327797;75;51151;-76
2023/01/19 04:37:46;;;;;;;;;;;;;;;18.01;66.46;99660.64;2376068;74;51567;-76
2023/01/19 04:40:51;;;;;;;;;;;;;;;18.08;66.07;99665.17;2318932;76;51450;-76
2023/01/19 04:43:53;;;;;;;;;;;;;;;18.10;65.94;99663.13;2342323;74;50691;-75
2023/01/19 04:46:54;;;;;;;;;;;;;;;18.10;65.92;99667.14;2343540;75;52857;-76
2023/01/19 04:49:56;;;;;;;;;;;;;;;18.08;65.94;99664.65;2346389;74;50651;-76
2023/01/19 04:52:58;;;;;;;;;;;;;;;18.05;65.99;99663.73;2378990;73;50451;-77
2023/01/19 04:55:59;;;;;;;;;;;;;;;18.02;66.23;99662.28;2358380;74;51411;-77
2023/01/19 04:59:01;;;;;;;;;;;;;;;17.99;66.17;99654.66;2357808;73;53050;-77
2023/01/19 05:02:03;;;;;;;;;;;;;;;17.97;66.34;99657.23;2365835;73;51529;-77
2023/01/19 05:05:04;;;;;;;;;;;;;;;17.90;66.76;99663.89;2353454;74;51615;-77
2023/01/19 05:08:06;;;;;;;;;;;;;;;17.83;66.91;99663.89;2319048;76;49973;-77
2023/01/19 05:11:08;;;;;;;;;;;;;;;17.85;66.75;99666.35;2332219;73;50260;-77
2023/01/19 05:14:09;;;;;;;;;;;;;;;17.90;66.53;99665.23;2378172;74;50570;-77
2023/01/19 05:17:11;;;;;;;;;;;;;;;17.97;66.39;99666.08;2381270;74;50199;-76
2023/01/19 05:20:12;;;;;;;;;;;;;;;18.03;66.12;99667.97;2364383;74;50469;-78
2023/01/19 05:23:14;;;;;;;;;;;;;;;18.12;65.93;99678.47;2315896;76;51658;-77
2023/01/19 05:26:16;;;;;;;;;;;;;;;18.12;65.68;99670.44;2331009;76;50334;-77
2023/01/19 05:29:17;;;;;;;;;;;;;;;18.13;65.62;99678.77;2342559;74;50259;-76
2023/01/19 05:32:19;;;;;;;;;;;;;;;18.11;65.69;99678.14;2375736;75;50668;-76
2023/01/19 05:35:20;;;;;;;;;;;;;;;18.08;65.73;99667.84;2358472;75;52445;-77
2023/01/19 05:38:22;;;;;;;;;;;;;;;18.06;66.05;99673.42;2381206;75;51686;-77
2023/01/19 05:41:24;;;;;;;;;;;;;;;18.03;65.99;99675.99;2380999;74;50638;-77
2023/01/19 05:44:25;;;;;;;;;;;;;;;18.00;66.00;99685.74;2350640;74;50637;-79
2023/01/19 05:47:28;;;;;;;;;;;;;;;18.00;66.14;99691.09;2292754;76;52452;-75
2023/01/19 05:50:30;;;;;;;;;;;;;;;17.89;66.49;99687.69;2340364;75;51621;-77
2023/01/19 05:53:32;;;;;;;;;;;;;;;17.84;66.57;99688.80;2352154;74;50443;-80
2023/01/19 05:56:34;;;;;;;;;;;;;;;17.88;66.55;99699.42;2381780;74;48553;-79
2023/01/19 05:59:36;;;;;;;;;;;;;;;17.97;66.18;99696.86;2358702;74;51540;-78
2023/01/19 06:02:37;;;;;;;;;;;;;;;18.04;65.88;99703.06;2384175;73;51552;-74
2023/01/19 06:05:39;;;;;;;;;;;;;;;18.10;65.66;99705.44;2348912;75;50242;-76
2023/01/19 06:08:41;;;;;;;;;;;;;;;18.11;65.53;99723.16;2377770;73;50273;-77
2023/01/19 06:11:43;;;;;;;;;;;;;;;18.10;65.54;99727.37;2351388;75;52633;-79
2023/01/19 06:14:44;;;;;;;;;;;;;;;18.06;65.69;99725.63;2379414;74;50157;-78
2023/01/19 06:17:46;;;;;;;;;;;;;;;18.03;65.87;99730.02;2380981;74;50754;-79
2023/01/19 06:20:48;;;;;;;;;;;;;;;17.99;65.89;99725.59;2381175;74;50249;-78
2023/01/19 06:23:49;;;;;;;;;;;;;;;17.96;65.97;99721.98;2357722;74;50190;-78
2023/01/19 06:26:51;;;;;;;;;;;;;;;17.92;66.22;99721.25;2381406;74;50302;-79
2023/01/19 06:29:52;;;;;;;;;;;;;;;17.84;66.62;99718.23;2351857;74;50742;-78
2023/01/19 06:32:54;;;;;;;;;;;;;;;17.83;66.49;99717.41;2354770;75;50627;-79
2023/01/19 06:35:55;;;;;;;;;;;;;;;17.81;62.74;99718.13;2329024;75;52519;-79
2023/01/19 06:38:57;;;;;;;;;;;;;;;17.87;62.34;99709.80;2379714;75;50679;-79
2023/01/19 06:41:59;;;;;;;;;;;;;;;18.04;61.96;99716.45;2355383;75;50705;-79
2023/01/19 06:45:00;;;;;;;;;;;;;;;18.16;61.78;99721.20;2379420;75;51592;-80
2023/01/19 06:48:03;;;;;;;;;;;;;;;18.20;61.77;99729.15;2328862;73;51706;-80
2023/01/19 06:51:05;;;;;;;;;;;;;;;18.33;61.60;99725.15;2373915;74;51638;-79
2023/01/19 06:54:07;;;;;;;;;;;;;;;18.38;61.60;99720.52;2343529;75;50286;-79
2023/01/19 06:57:10;;;;;;;;;;;;;;;18.43;61.46;99722.08;2344970;75;51539;-78
2023/01/19 07:00:12;;;;;;;;;;;;;;;18.45;61.45;99720.84;2347027;74;51258;-79
2023/01/19 07:03:21;;;;;;;;;;;;;;;18.44;61.56;99723.71;2403969;73;51564;-79
2023/01/19 07:06:22;;;;;;;;;;;;;;;18.42;61.63;99723.94;2422914;73;50423;-79
2023/01/19 07:09:24;;;;;;;;;;;;;;;18.42;61.69;99723.94;2391066;73;50324;-79
2023/01/19 07:12:25;;;;;;;;;;;;;;;18.37;61.81;99725.06;2390521;73;51463;-80
2023/01/19 07:15:27;;;;;;;;;;;;;;;18.32;62.02;99732.88;2390785;73;51572;-79
2023/01/19 07:18:29;;;;;;;;;;;;;;;18.14;60.89;99733.98;2424948;73;51746;-79
2023/01/19 07:21:31;;;;;;;;;;;;;;;18.16;61.11;99737.26;2390770;73;51519;-79
2023/01/19 07:24:33;;;;;;;;;;;;;;;18.20;61.04;99753.24;2335873;74;50868;-79
2023/01/19 07:27:35;;;;;;;;;;;;;;;18.26;61.09;99751.94;2381586;74;50481;-79
2023/01/19 07:30:36;;;;;;;;;;;;;;;18.31;61.20;99744.61;2358625;74;50598;-79
2023/01/19 07:33:38;;;;;;;;;;;;;;;18.40;61.01;99749.27;2369285;74;50636;-78
2023/01/19 07:36:40;;;;;;;;;;;;;;;18.43;61.11;99748.34;2328557;75;52513;-78
2023/01/19 07:39:41;;;;;;;;;;;;;;;18.49;61.06;99746.17;2379584;74;50274;-79
2023/01/19 07:42:47;;;;;;;;;;;;;;;18.47;61.24;99749.59;2355076;75;50779;-78
2023/01/19 07:45:49;;;;;;;;;;;;;;;18.37;61.48;99754.52;2379434;75;50380;-78
2023/01/19 07:48:50;;;;;;;;;;;;;;;18.36;61.58;99756.05;2356882;75;51747;-79
2023/01/19 07:51:55;;;;;;;;;;;;;;;18.34;61.62;99758.95;2379825;75;50389;-77
2023/01/19 07:54:55;;;;;;;;;;;;;;;18.22;62.01;99769.94;2379854;74;22407;-78
2023/01/19 07:57:57;;;;;;;;;;;;;;;18.21;62.05;99761.58;2355610;75;51364;-77
2023/01/19 08:00:58;;;;;;;;;;;;;;;18.17;62.22;99769.20;2356993;73;51688;-77
2023/01/19 08:04:00;;;;;;;;;;;;;;;18.18;62.26;99768.68;2369919;74;52212;-78
2023/01/19 08:07:02;;;;;;;;;;;;;;;18.19;62.30;99771.69;2355887;75;51433;-80
2023/01/19 08:10:04;;;;;;;;;;;;;;;18.18;62.44;99768.68;2356285;74;50373;-79
2023/01/19 08:13:06;;;;;;;;;;;;;;;18.26;62.29;99775.19;2331758;74;52419;-79
2023/01/19 08:16:07;;;;;;;;;;;;;;;18.24;62.29;99779.94;2356821;75;51173;-79
2023/01/19 08:19:09;;;;;;;;;;;;;;;18.25;62.34;99789.09;2379740;74;51434;-78
2023/01/19 08:22:10;;;;;;;;;;;;;;;18.36;62.16;99789.02;2379404;75;51547;-77
2023/01/19 08:25:12;;;;;;;;;;;;;;;18.40;61.94;99796.15;2355072;75;50443;-77
2023/01/19 08:28:14;;;;;;;;;;;;;;;18.36;62.06;99790.35;2327726;73;51358;-78
2023/01/19 08:31:16;;;;;;;;;;;;;;;18.32;62.25;99790.47;2376647;74;50694;-78
2023/01/19 08:34:17;;;;;;;;;;;;;;;18.27;62.29;99793.73;2404898;73;51505;-78
2023/01/19 08:37:19;;;;;;;;;;;;;;;18.25;62.25;99793.11;2390665;73;50732;-78
2023/01/19 08:40:20;;;;;;;;;;;;;;;18.26;62.29;99793.44;2363042;73;52466;-79
2023/01/19 08:43:22;;;;;;;;;;;;;;;18.17;62.44;99801.33;2424357;73;51482;-78
2023/01/19 08:46:23;;;;;;;;;;;;;;;18.18;62.58;99796.27;2424563;73;50646;-78
2023/01/19 08:49:25;;;;;;;;;;;;;;;18.15;62.51;99794.52;2390789;73;51476;-78
2023/01/19 08:52:28;;;;;;;;;;;;;;;18.14;62.43;99792.88;2362988;73;52325;-78
2023/01/19 08:55:29;;;;;;;;;;;;;;;18.24;62.11;99798.16;2424761;72;50681;-79
2023/01/19 08:58:31;;;;;;;;;;;;;;;18.33;61.88;99807.35;2424679;73;51440;-77
2023/01/19 09:01:32;;;;;;;;;;;;;;;18.38;61.74;99802.22;2373551;73;51354;-78
2023/01/19 09:04:35;;;;;;;;;;;;;;;18.41;61.69;99803.96;2371232;74;52387;-80
2023/01/19 09:07:37;;;;;;;;;;;;;;;18.44;61.58;99803.55;2355829;75;50494;-80
2023/01/19 09:10:38;;;;;;;;;;;;;;;18.45;61.48;99805.22;2355971;75;51624;-80
2023/01/19 09:13:40;;;;;;;;;;;;;;;18.42;61.50;99812.33;2379759;75;51517;-80
2023/01/19 09:16:42;;;;;;;;;;;;;;;18.38;61.59;99816.94;2357035;74;51752;-80
2023/01/19 09:19:43;;;;;;;;;;;;;;;18.34;61.65;99818.36;2355550;75;51693;-80
2023/01/19 09:22:46;;;;;;;;;;;;;;;18.30;61.83;99820.63;2379612;74;51470;-80
2023/01/19 09:25:48;;;;;;;;;;;;;;;18.28;61.77;99824.02;2355783;75;51301;-80
2023/01/19 09:28:49;;;;;;;;;;;;;;;18.22;62.03;99816.80;2329004;75;50085;-80
2023/01/19 09:31:51;;;;;;;;;;;;;;;18.21;62.07;99825.84;2373107;73;51316;-80
2023/01/19 09:34:53;;;;;;;;;;;;;;;18.22;62.06;99822.16;2393096;73;50628;-80
2023/01/19 09:37:55;;;;;;;;;;;;;;;18.27;61.88;99819.18;2397819;73;50959;-79
2023/01/19 09:40:57;;;;;;;;;;;;;;;18.31;61.87;99815.57;2363302;73;50869;-81
2023/01/19 09:43:59;;;;;;;;;;;;;;;18.32;61.76;99822.59;2420272;73;50727;-79
2023/01/19 09:47:01;;;;;;;;;;;;;;;18.39;61.57;99824.76;2382629;74;50479;-80
2023/01/19 09:50:04;;;;;;;;;;;;;;;18.46;61.39;99821.59;2381584;74;51711;-80
2023/01/19 09:53:12;;;;;;;;;;;;;;;18.46;61.33;99814.89;2358477;74;51784;-80
2023/01/19 09:56:14;;;;;;;;;;;;;;;18.44;61.37;99819.63;2381150;74;50880;-79
2023/01/19 09:59:17;;;;;;;;;;;;;;;18.42;61.39;99820.85;2381499;74;50522;-80
2023/01/19 10:02:20;;;;;;;;;;;;;;;18.39;61.53;99816.72;2390189;73;51569;-79
2023/01/19 10:05:33;;;;;;;;;;;;;;;18.33;61.65;99828.25;2360411;75;52920;-79
2023/01/19 10:08:36;;;;;;;;;;;;;;;18.25;61.84;99811.86;2394791;73;51570;-80
2023/01/19 10:11:45;;;;;;;;;;;;;;;18.19;62.04;99813.19;2341054;75;51556;-79
2023/01/19 10:14:48;;;;;;;;;;;;;;;18.19;62.02;99810.52;2340961;75;50734;-81
2023/01/19 10:18:01;;;;;;;;;;;;;;;18.16;62.07;99809.55;2319298;75;51895;-80
2023/01/19 10:21:07;;;;;;;;;;;;;;;18.20;61.85;99802.26;2341677;75;50857;-79
2023/01/19 10:24:22;;;;;;;;;;;;;;;18.28;61.78;99803.93;2341440;76;51235;-79
2023/01/19 10:27:26;;;;;;;;;;;;;;;18.28;61.68;99803.93;2341567;76;51493;-79
2023/01/19 10:30:29;;;;;;;;;;;;;;;18.42;61.33;99810.14;2320360;75;51836;-78
2023/01/19 10:33:30;;;;;;;;;;;;;;;18.42;61.23;99797.59;2340633;75;51413;-79
2023/01/19 10:36:36;;;;;;;;;;;;;;;18.45;61.11;99789.67;2344020;74;50755;-78
2023/01/19 10:39:37;;;;;;;;;;;;;;;18.48;61.04;99793.27;2396065;73;50378;-79
2023/01/19 10:42:40;;;;;;;;;;;;;;;18.48;60.98;99799.45;2424880;73;50783;-78
2023/01/19 10:45:41;;;;;;;;;;;;;;;18.41;61.08;99793.25;2424790;73;51576;-79
2023/01/19 10:48:43;;;;;;;;;;;;;;;18.32;61.36;99790.47;2425014;73;51404;-79
2023/01/19 10:51:48;;;;;;;;;;;;;;;18.30;61.39;99793.03;2425046;73;51506;-79
2023/01/19 10:54:49;;;;;;;;;;;;;;;18.25;61.64;99793.63;2390258;73;49679;-79
2023/01/19 10:57:52;;;;;;;;;;;;;;;18.21;61.68;99795.05;2424884;73;50407;-78
2023/01/19 11:00:54;;;;;;;;;;;;;;;18.20;61.61;99785.38;2424739;73;50672;-79
2023/01/19 11:04:02;;;;;;;;;;;;;;;18.23;61.58;99786.30;2390540;73;51565;-78
2023/01/19 11:07:15;;;;;;;;;;;;;;;18.26;61.56;99788.09;2423591;73;22356;-79
2023/01/19 11:10:23;;;;;;;;;;;;;;;18.33;61.30;99789.94;2409564;73;51615;-79
2023/01/19 11:13:22;;;;;;;;;;;;;;;18.39;61.08;99787.78;2423863;72;22362;-78
2023/01/19 11:16:30;;;;;;;;;;;;;;;18.42;60.92;99782.86;2424683;73;50500;-78
2023/01/19 11:19:32;;;;;;;;;;;;;;;18.44;60.84;99775.42;2390902;73;52432;-80
2023/01/19 11:22:33;;;;;;;;;;;;;;;18.55;60.71;99782.55;2424927;73;51508;-80
2023/01/19 11:25:35;;;;;;;;;;;;;;;18.51;60.80;99778.13;2424816;73;51450;-79
2023/01/19 11:28:37;;;;;;;;;;;;;;;18.50;60.78;99773.81;2424891;72;50694;-79
2023/01/19 11:31:39;;;;;;;;;;;;;;;18.45;60.95;99774.41;2391834;73;51241;-79
2023/01/19 11:34:40;;;;;;;;;;;;;;;18.44;61.02;99766.05;2350282;74;50780;-81
2023/01/19 11:37:42;;;;;;;;;;;;;;;18.39;61.14;99764.50;2337941;74;50574;-80
2023/01/19 11:40:45;;;;;;;;;;;;;;;18.31;61.40;99760.67;2380040;74;50786;-79
2023/01/19 11:43:51;;;;;;;;;;;;;;;18.28;61.55;99757.06;2348319;73;51817;-76
2023/01/19 11:46:54;;;;;;;;;;;;;;;18.14;62.75;99758.08;2349923;73;50699;-78
2023/01/19 11:49:59;;;;;;;;;;;;;;;18.19;62.53;99758.30;2381265;73;50901;-79
2023/01/19 11:53:02;;;;;;;;;;;;;;;18.30;62.50;99759.03;2358570;74;50760;-81
2023/01/19 11:56:08;;;;;;;;;;;;;;;18.31;62.50;99759.34;2347663;74;51720;-79
2023/01/19 11:59:11;;;;;;;;;;;;;;;18.36;62.52;99754.20;2379911;73;50796;-78
2023/01/19 12:02:23;;;;;;;;;;;;;;;18.46;62.19;99768.02;2364803;74;50197;-78
2023/01/19 12:05:26;;;;;;;;;;;;;;;18.55;61.87;99761.12;2340084;75;50692;-78
2023/01/19 12:08:29;;;;;;;;;;;;;;;18.52;61.78;99758.34;2382886;73;52619;-78
2023/01/19 12:11:32;;;;;;;;;;;;;;;18.45;61.93;99764.22;2423608;73;50721;-77
2023/01/19 12:14:45;;;;;;;;;;;;;;;18.40;61.98;99756.79;2424378;73;51526;-78
2023/01/19 12:17:48;;;;;;;;;;;;;;;18.34;62.10;99758.10;2424253;73;50445;-78
2023/01/19 12:20:50;;;;;;;;;;;;;;;18.30;62.23;99750.19;2310345;75;51714;-78
2023/01/19 12:24:06;;;;;;;;;;;;;;;18.26;62.33;99753.76;2379059;75;51508;-78
2023/01/19 12:27:09;;;;;;;;;;;;;;;18.19;62.47;99748.41;2379957;74;51492;-79
2023/01/19 12:30:21;;;;;;;;;;;;;;;18.18;62.46;99747.26;2379938;74;51457;-78
2023/01/19 12:33:35;;;;;;;;;;;;;;;18.25;62.24;99757.48;2319629;74;52452;-78
2023/01/19 12:36:40;;;;;;;;;;;;;;;18.32;62.02;99763.68;2339114;75;22351;-78
2023/01/19 12:39:43;;;;;;;;;;;;;;;18.39;61.81;99770.38;2340501;76;50347;-78
2023/01/19 12:42:49;;;;;;;;;;;;;;;18.45;61.61;99775.75;2340390;75;50344;-78
2023/01/19 12:45:51;;;;;;;;;;;;;;;18.52;61.39;99765.03;2376856;73;52417;-75
2023/01/19 12:48:52;;;;;;;;;;;;;;;18.58;61.28;99769.59;2365172;74;50242;-74
2023/01/19 12:52:11;;;;;;;;;;;;;;;18.60;61.27;99772.90;2371734;74;50469;-75
2023/01/19 12:55:14;;;;;;;;;;;;;;;18.49;61.71;99769.46;2339852;74;50780;-74
2023/01/19 12:58:17;;;;;;;;;;;;;;;18.46;61.75;99782.75;2342036;74;50702;-75
2023/01/19 13:01:20;;;;;;;;;;;;;;;18.43;61.83;99783.69;2340402;74;51462;-74
2023/01/19 13:04:32;;;;;;;;;;;;;;;18.45;61.91;99775.75;2340230;73;50349;-74
2023/01/19 13:07:47;;;;;;;;;;;;;;;18.40;62.00;99776.06;2358337;74;50308;-74
2023/01/19 13:11:03;;;;;;;;;;;;;;;18.36;62.22;99785.52;2253184;76;52764;-74
2023/01/19 13:14:07;;;;;;;;;;;;;;;18.37;62.21;99781.31;2265837;78;50898;-75
2023/01/19 13:17:28;;;;;;;;;;;;;;;18.31;62.31;99782.09;2240713;79;50646;-75
2023/01/19 13:20:33;;;;;;;;;;;;;;;18.33;62.27;99784.59;2275841;76;50871;-75
2023/01/19 13:23:39;;;;;;;;;;;;;;;18.42;61.99;99784.20;2324286;75;52505;-74
2023/01/19 13:26:52;;;;;;;;;;;;;;;18.46;61.84;99793.47;2272866;77;50797;-74
2023/01/19 13:29:53;;;;;;;;;;;;;;;18.52;61.65;99792.34;2276474;78;52289;-75
2023/01/19 13:32:56;;;;;;;;;;;;;;;18.50;61.58;99798.73;2277635;78;50442;-74
2023/01/19 13:35:57;;;;;;;;;;;;;;;18.47;61.68;99804.51;2239406;79;50193;-74
2023/01/19 13:39:00;;;;;;;;;;;;;;;18.53;61.41;99802.87;2240985;79;50789;-73
2023/01/19 13:42:06;;;;;;;;;;;;;;;18.42;61.68;99807.46;2242630;78;50730;-74
2023/01/19 13:45:18;;;;;;;;;;;;;;;18.39;61.68;99811.37;2264458;77;51548;-73
2023/01/19 13:48:21;;;;;;;;;;;;;;;18.30;61.88;99816.61;2323866;74;51316;-74
2023/01/19 13:51:22;;;;;;;;;;;;;;;18.26;62.21;99812.67;2378440;73;50712;-74
2023/01/19 13:54:24;;;;;;;;;;;;;;;18.28;62.24;99814.12;2336250;75;51477;-74
2023/01/19 13:57:29;;;;;;;;;;;;;;;18.31;62.04;99820.93;2317889;76;50295;-73
2023/01/19 14:00:32;;;;;;;;;;;;;;;18.39;61.96;99815.38;2317976;75;50697;-74
2023/01/19 14:03:33;;;;;;;;;;;;;;;18.40;61.78;99819.73;2342155;74;51567;-74
2023/01/19 14:06:36;;;;;;;;;;;;;;;18.42;61.75;99823.05;2340388;75;50399;-73
2023/01/19 14:09:38;;;;;;;;;;;;;;;18.47;61.55;99815.23;2340235;75;50705;-75
2023/01/19 14:12:40;;;;;;;;;;;;;;;18.50;61.54;99816.16;2292097;76;51632;-75
2023/01/19 14:15:42;;;;;;;;;;;;;;;18.48;61.35;99819.55;2343885;74;51566;-75
2023/01/19 14:18:43;;;;;;;;;;;;;;;18.46;61.38;99832.30;2350299;73;50587;-75
2023/01/19 14:21:45;;;;;;;;;;;;;;;18.39;61.65;99837.33;2396548;72;51509;-74
2023/01/19 14:24:47;;;;;;;;;;;;;;;18.31;61.93;99842.88;2372041;73;51211;-75
2023/01/19 14:27:48;;;;;;;;;;;;;;;18.27;61.80;99846.48;2340256;75;50636;-75
2023/01/19 14:30:57;;;;;;;;;;;;;;;18.21;62.02;99841.91;2340278;75;51557;-75
2023/01/19 14:33:58;;;;;;;;;;;;;;;18.11;62.34;99846.31;2317608;74;50425;-75
2023/01/19 14:37:00;;;;;;;;;;;;;;;18.08;62.45;99851.22;2342455;74;50470;-75
2023/01/19 14:40:07;;;;;;;;;;;;;;;18.13;62.23;99854.13;2340390;73;51645;-75
2023/01/19 14:43:10;;;;;;;;;;;;;;;18.22;61.84;99849.75;2358440;74;50334;-75
2023/01/19 14:46:18;;;;;;;;;;;;;;;18.39;61.45;99848.05;2378556;74;51479;-75
2023/01/19 14:49:21;;;;;;;;;;;;;;;18.46;61.07;99849.72;2330912;74;52688;-75
2023/01/19 14:52:24;;;;;;;;;;;;;;;18.57;60.71;99847.48;2393666;73;50558;-75
2023/01/19 14:55:36;;;;;;;;;;;;;;;18.66;60.43;99850.30;2348687;74;50516;-75
2023/01/19 14:58:38;;;;;;;;;;;;;;;18.64;60.41;99857.19;2379603;73;50478;-75
2023/01/19 15:01:40;;;;;;;;;;;;;;;18.58;60.45;99856.66;2331266;74;51075;-74
2023/01/19 15:04:41;;;;;;;;;;;;;;;18.54;60.56;99853.25;2380545;73;50693;-73
2023/01/19 15:07:43;;;;;;;;;;;;;;;18.48;60.62;99849.53;2356725;74;50661;-75
2023/01/19 15:10:45;;;;;;;;;;;;;;;18.44;60.74;99857.13;2380879;74;51443;-74
2023/01/19 15:13:47;;;;;;;;;;;;;;;18.39;60.96;99854.22;2344929;74;52409;-74
2023/01/19 15:16:48;;;;;;;;;;;;;;;18.31;61.22;99858.94;2342433;74;51426;-74
2023/01/19 15:19:50;;;;;;;;;;;;;;;18.27;61.29;99859.34;2369565;73;50247;-74
2023/01/19 15:22:52;;;;;;;;;;;;;;;18.30;61.16;99860.80;2362716;74;50727;-74
2023/01/19 15:25:55;;;;;;;;;;;;;;;18.40;60.81;99866.61;2328061;75;53448;-73
2023/01/19 15:28:57;;;;;;;;;;;;;;;18.44;60.71;99868.36;2350482;75;52685;-73
2023/01/19 15:31:58;;;;;;;;;;;;;;;18.44;60.66;99864.34;2378603;74;51563;-74
2023/01/19 15:35:00;;;;;;;;;;;;;;;18.47;60.59;99863.93;2356458;74;51436;-74
2023/01/19 15:38:01;;;;;;;;;;;;;;;18.54;60.37;99862.11;2339588;74;52499;-75
2023/01/19 15:41:03;;;;;;;;;;;;;;;18.56;60.46;99865.94;2320790;74;51631;-74
2023/01/19 15:44:05;;;;;;;;;;;;;;;18.59;60.47;99870.87;2352823;74;50542;-75
2023/01/19 15:47:06;;;;;;;;;;;;;;;18.62;60.75;99869.13;2340517;74;50811;-74
2023/01/19 15:50:08;;;;;;;;;;;;;;;18.56;61.14;99869.95;2332527;73;52610;-75
2023/01/19 15:53:14;;;;;;;;;;;;;;;18.49;61.26;99877.44;2378799;74;50450;-74
2023/01/19 15:56:19;;;;;;;;;;;;;;;18.45;61.56;99870.84;2381661;74;50280;-75
2023/01/19 15:59:22;;;;;;;;;;;;;;;18.40;61.66;99875.98;2352603;73;50087;-76
2023/01/19 16:02:24;;;;;;;;;;;;;;;18.38;61.78;99874.01;2292671;76;52603;-75
2023/01/19 16:05:25;;;;;;;;;;;;;;;18.31;62.01;99878.51;2318575;74;50562;-74
2023/01/19 16:08:28;;;;;;;;;;;;;;;18.29;62.29;99876.56;2319958;75;51498;-73